Hauptseite
METAR-TAF:

METAR-TAF

Flughäfen :

Militärflugplatz Deelen

Arnheim, Niederlande

Breite: 52-04N, Länge: 005-53E, Höhe: 48 m

Beobachtung

Neuester Wetterbericht von vor 26 Minuten, um 15:55 UTC
Wind 2 kt aus unterschiedlichen Richtungen
Temperatur 27°C
Luftfeuchtigkeit 34%
Luftdruck 1024 hPa
Sichtweite 10 km oder mehr
Leicht bewölkt in der Höhe von 33000 ft

METAR: EHDL 231555Z AUTO VRB02KT 9999 FEW330 27/10 Q1024 BLU

Zeit: 18:21 (16:21 UTC)


TAF: fehlend

Wetterbeobachtungen und Prognosen von mehr als 4000 Flughäfen (METAR und TAF Bericht).

Die verfügbaren Stationen werden durch gelbe und rote Markierungen auf der Karte dargestellt.

Führen Sie die Maus auf sie, um den Namen der Station zu sehen.

Darauf klicken, um die Beobachtung von Wetterbeobachtungen und Prognosen zu sehen.

Um die Karte zu ändern : klicken Sie auf den grünen Tasten mit einem schwarzen Kreuz Zum Vergrößern, auf den grünen Button mit einem Gedankenstrich zu verkleinern, oder auf die grünen Pfeile für benachbarte Karten.


METAR-TAF: